Hovedside
METAR-TAF:

METAR-TAF

Lufthavner :

Dublin lufthavn

Dublin, Irland

breddegrad: 53-26N, lengdegrad: 006-15W, høyde over havet: 68 m

Gjeldene værobservasjon

Denne rapporten ble laget for 18 minutter siden, klokken 04:30 UTC
Vind 8 kt fra Vest
Temperatur 4°C
Luftfuktighet 93%
Trykk 1038 hPa
Sikt 10 km eller mer
Få skyer i en høyde av 1800 ft
Spredte skyer i en høyde av 4000 ft

METAR: EIDW 220430Z 27008KT 9999 FEW018 SCT040 04/03 Q1038 NOSIG

Tid: 05:48 (04:48 UTC)

Varsel

Denne rapporten ble laget for 5 timer og 48 minutter siden, klokken 23:00 UTC
Varsel gyldig fra 22. klokken 00 UTC til 22. klokken 24 UTC
Vind 7 kt fra Vest
Sikt 10 km eller mer
Få skyer i en høyde av 2000 ft
Spredte skyer i en høyde av 4000 ft
Blir
fra 22. klokken 11 UTC til 22. klokken 13 UTC
Vind 12 kt fra Vest
Midlertidig
fra 22. klokken 22 UTC til 22. klokken 24 UTC
Vind 16 kt fra Vest med vindkast opp mot 26 kt

TAF: EIDW 212300Z 2200/2224 28007KT 9999 FEW020 SCT040 BECMG 2211/2213 27012KT TEMPO 2222/2224 26016G26KT

Værobservasjoner og værvarsel for over 4000 flyplasser (METAR- og TAF-rapporter).

Tilgjengelige stasjoner er representert av de røde og gule prikkene på kartet.

Hold musepekeren over prikken for å se navnet på stasjonen.

Klikk så for å se værobservasjoner og -varsler.

For å forandre kartet kan du klikke på den grønne knappen med svart kryss for å zoome inn, på den grønne knappen med strek for å zoome ut, eller på de grønne pilene for å se tilstøtende kart.


METAR-TAF: